Hafnia Kirsten — 9HA4203 — position and weather

sailwx.info

Track history (hours):
 
Tides and Currents Weather Stations Pressure Air Temp Water Temp Dewpoint Dewpoint Depression Visibility Wind Speed Wind Dir Waves Ship Positions

Hafnia Kirsten

Last reported at 2018-Jun-20 19:42 UTC. Time now 2018-Jun-21 06:53 UTC.
Position N 26°09' W 079°22'.

Length 183 m; draft 10.4 m.

Type: Tanker. MMSI: 249340000.

Date/timePositionNaut miles runAvg speedWind from/ knotsBaromVisibWave heightAir tempDewpointWater temp
2018-Jun-20 19:42N 26°09' W 079°22'  
2018-Jun-11 23:35N 35°40' W 026°31'1112.8
2018-Jun-11 22:42N 35°40' W 026°17'1712.6
2018-Jun-11 21:21N 35°40' W 025°56'913.0
2018-Jun-11 20:38N 35°40' W 025°45'212.9
2018-Jun-11 20:30N 35°40' W 025°43'1013.2
2018-Jun-11 19:45N 35°40' W 025°30'613.3
2018-Jun-11 19:19N 35°40' W 025°23'713.2
2018-Jun-11 18:45N 35°41' W 025°14'413.1
2018-Jun-11 18:24N 35°41' W 025°09'513.0
2018-Jun-11 18:00N 35°41' W 025°02'713.2
2018-Jun-11 17:30N 35°41' W 024°54'813.5
2018-Jun-11 16:56N 35°40' W 024°45'613.1
2018-Jun-11 16:30N 35°41' W 024°38'1113.0
2018-Jun-11 15:41N 35°41' W 024°25'313.0
2018-Jun-11 15:29N 35°41' W 024°21'613.4
2018-Jun-11 15:00N 35°41' W 024°13'713.6
2018-Jun-11 14:30N 35°41' W 024°05'713.1
2018-Jun-11 14:00N 35°41' W 023°57'613.0
2018-Jun-11 13:30N 35°41' W 023°49'713.1
2018-Jun-11 13:00N 35°41' W 023°41'713.2
2018-Jun-11 12:30N 35°41' W 023°33'713.2
2018-Jun-11 11:58N 35°41' W 023°24'613.4
2018-Jun-11 11:30N 35°41' W 023°16'7412.9
2018-Jun-11 05:46N 35°42' W 021°45'813.0
2018-Jun-11 05:10N 35°42' W 021°35'  
Track history (hours):
 
Tides and Currents Weather Stations Pressure Air Temp Water Temp Dewpoint Dewpoint Depression Visibility Wind Speed Wind Dir Waves Ship Positions

Hafnia Kirsten

Last reported at 2018-Jun-20 19:42 UTC. Time now 2018-Jun-21 06:53 UTC.
Position N 26°09' W 079°22'.

Length 183 m; draft 10.4 m.

Type: Tanker. MMSI: 249340000.

Date/timePositionNaut miles runAvg speedWind from/ knotsBaromVisibWave heightAir tempDewpointWater temp
2018-Jun-20 19:42N 26°09' W 079°22'  
2018-Jun-11 23:35N 35°40' W 026°31'1112.8
2018-Jun-11 22:42N 35°40' W 026°17'1712.6
2018-Jun-11 21:21N 35°40' W 025°56'913.0
2018-Jun-11 20:38N 35°40' W 025°45'212.9
2018-Jun-11 20:30N 35°40' W 025°43'1013.2
2018-Jun-11 19:45N 35°40' W 025°30'613.3
2018-Jun-11 19:19N 35°40' W 025°23'713.2
2018-Jun-11 18:45N 35°41' W 025°14'413.1
2018-Jun-11 18:24N 35°41' W 025°09'513.0
2018-Jun-11 18:00N 35°41' W 025°02'713.2
2018-Jun-11 17:30N 35°41' W 024°54'813.5
2018-Jun-11 16:56N 35°40' W 024°45'613.1
2018-Jun-11 16:30N 35°41' W 024°38'1113.0
2018-Jun-11 15:41N 35°41' W 024°25'313.0
2018-Jun-11 15:29N 35°41' W 024°21'613.4
2018-Jun-11 15:00N 35°41' W 024°13'713.6
2018-Jun-11 14:30N 35°41' W 024°05'713.1
2018-Jun-11 14:00N 35°41' W 023°57'613.0
2018-Jun-11 13:30N 35°41' W 023°49'713.1
2018-Jun-11 13:00N 35°41' W 023°41'713.2
2018-Jun-11 12:30N 35°41' W 023°33'713.2
2018-Jun-11 11:58N 35°41' W 023°24'613.4
2018-Jun-11 11:30N 35°41' W 023°16'7412.9
2018-Jun-11 05:46N 35°42' W 021°45'813.0
2018-Jun-11 05:10N 35°42' W 021°35'  

Dump ship's entire track history